Aviation Digital Data Service (ADDS)

Output produced by TAFs form (2233 UTC 01 April 2015)
found at http://aviationweather.gov/adds/tafs/
 
KCNM 011803Z 0118/0218 27009KT P6SM SCT080 
     FM020100 25012KT P6SM SKC 
     FM021300 26012KT P6SM SKC 
     FM021700 23021G31KT P6SM FEW250